Tiempo atmosférico en la estación meteorológica de Binissalem, Illes Balears (105 m.)



Fecha
DESCASC
Temp. máxima en grados centígrados (hora)
DESCASC
Temp. mínima en grados centígrados (hora)
DESCASC
Temp. media en grados centígrados
DESCASC
Racha de viento máxima en m/sg (hora)
DESCASC
Velocidad máxima media en intervalos de 10 minutos(hora)
DESCASC
Precipitaciones diarias en mm
DESCASC
Precipitaciones de 00:00 a 06:00 en mm
DESCASC
Precipitaciones de 06:00 a 12:00 en mm
DESCASC
Precipitaciones de 12:00 a 18:00 en mm
DESCASC
Precipitaciones de 18:00 a 24:00 en mm
DESCASC
23-05-2018 27.3 (16:20) 11.6 (07:00) 19.4 7.22 (17:30) 3.89 (14:10) 0 0 0 0 0
22-05-2018 23.6 (12:00) 10.3 (06:40) 17 5.28 (12:00) 3.33 (18:40) 1.8 0 0.2 1.6 0
21-05-2018 22.4 (16:20) 14.5 (06:20) 18.4 6.67 (16:10) 4.72 (15:40) 4.8 0 0.8 3.8 0.2
20-05-2018 24.6 (14:00) 10.6 (00:00) 17.6 8.06 (14:10) 4.44 (15:10) 0 0 0 0 0
19-05-2018 24.6 (15:00) 8.6 (00:00) 16.6 9.17 (15:30) 5 (14:20) 0 0 0 0 0
18-05-2018 22.3 (15:00) 11.5 (00:00) 16.9 9.72 (15:40) 5 (16:30) 0 0 0 0 0
17-05-2018 24 (14:30) 9.2 (00:00) 16.6 11.11 (15:00) 6.11 (15:00) 0 0 0 0 0
16-05-2018 24.1 (15:00) 7.6 (00:00) 15.9 7.5 (17:20) 4.17 (17:20) 0 0 0 0 0
15-05-2018 23.6 (15:20) 7.1 (00:00) 15.4 10.83 (16:30) 5.28 (15:40) 0 0 0 0 0
14-05-2018 19.6 (17:20) 9.3 (00:00) 14.5 12.5 (14:40) 8.33 (11:50) 0.4 0.4 0 0 0
13-05-2018 18.1 (17:20) 11.4 (00:00) 14.8 16.39 (04:30) 8.33 (04:30) 5.8 5.8 0 0 0
12-05-2018 22.3 (13:00) 11.1 (00:00) 16.7 11.39 (14:10) 5.56 (15:00) 0 0 0 0 0
11-05-2018 23.5 (15:00) 9.4 (07:10) 16.4 8.61 (14:20) 5.28 (15:40) 0 0 0 0 0
10-05-2018 22.2 (13:10) 13.3 (00:00) 17.8 7.5 (13:20) 4.44 (15:10) 0.6 0 0 0.6 0
09-05-2018 22.6 (15:10) 11.8 (00:00) 17.2 8.33 (10:30) 5.28 (13:00) 0 0 0 0 0
08-05-2018 21.4 (12:00) 10.8 (00:00) 16.1 7.78 (13:40) 5.28 (13:40) 0.2 0 0 0.2 0
07-05-2018 22.7 (15:20) 8.8 (00:00) 15.8 6.39 (16:50) 4.17 (16:50) 0 0 0 0 0
06-05-2018 22.8 (15:10) 10.1 (00:00) 16.4 8.89 (12:00) 5.56 (12:00) 0 0 0 0 0
05-05-2018 18.8 (17:20) 11.5 (00:00) 15.1 7.78 (17:30) 5 (16:30) 17 1 12.6 3.4 0
04-05-2018 17 (12:30) 11.3 (00:00) 14.2 6.11 (13:50) 4.17 (13:50) 4.2 0 1.6 2.4 0.2
03-05-2018 22.5 (14:20) 6.4 (00:00) 14.5 10.56 (17:20) 6.94 (15:50) 0 0 0 0 0
02-05-2018 20.1 (15:50) 7.9 (00:00) 14 10.28 (13:30) 6.67 (13:50) 0 0 0 0 0
01-05-2018 16.5 (13:00) 8.9 (23:20) 12.7 12.22 (16:00) 7.78 (16:00) 5.6 3.2 2.4 0 0
30-04-2018 19.8 (14:40) 9.1 (00:00) 14.4 10.56 (11:30) 6.94 (11:30) 0 0 0 0 0
29-04-2018 20 (14:40) 12.7 (00:00) 16.3 15.28 (18:30) 10.28 (16:20) 0.6 0 0.6 0 0
28-04-2018 23.2 (15:30) 10.3 (00:00) 16.8 9.44 (18:30) 5.56 (15:50) 0 0 0 0 0
27-04-2018 22.9 (12:50) 6.4 (00:00) 14.6 11.11 (14:30) 6.39 (15:00) 0 0 0 0 0
26-04-2018 18.7 (12:20) 11.1 (00:00) 14.9 17.22 (12:30) 10.28 (12:40) 0 0 0 0 0
25-04-2018 25.2 (13:50) 10.9 (00:00) 18.1 7.5 (14:00) 3.89 (10:50) 0 0 0 0 0
24-04-2018 26.3 (14:30) 11.3 (00:00) 18.8 9.17 (14:30) 5.28 (14:40) 0 0 0 0 0

Gráficas

Temp. máximas Temp. mínimas Temp. medias Precipitaciones Rachas de viento máximas Velocidades máximas media en intervalos de 10 minutos

Datos horarios

Fecha y hora oficial Temperatura (ºC) Velocidad del viento (km/h) Dirección del viento Racha (km/h) Dirección de racha Precipitación (mm) Presión (hPa) Tendencia (hPa) Humedad (%)
2018-05-23 23:00:00 17.7 7 Oeste 14 Oeste 0 -- -- 80
2018-05-23 22:00:00 18.8 7 Oeste 14 Oeste 0 -- -- 78
2018-05-23 21:00:00 20.4 6 Sudoeste 15 Oeste 0 -- -- 68
2018-05-23 20:00:00 23 12 Oeste 20 Oeste 0 -- -- 56
2018-05-23 19:00:00 25.3 11 Sudoeste 21 Sudoeste 0 -- -- 48
2018-05-23 18:00:00 26.2 13 Sudoeste 26 Sudeste 0 -- -- 45
2018-05-23 17:00:00 26.9 10 Sudoeste 22 Sur 0 -- -- 44
2018-05-23 16:00:00 26.9 10 Oeste 22 Oeste 0 -- -- 44
2018-05-23 15:00:00 25.9 10 Sudoeste 24 Oeste 0 -- -- 52
2018-05-23 14:00:00 25.6 12 Sudoeste 23 Sudoeste 0 -- -- 57
2018-05-23 13:00:00 25 11 Sudoeste 20 Sudoeste 0 -- -- 45
2018-05-23 12:00:00 24 8 Sudoeste 15 Sudoeste 0 -- -- 56
2018-05-23 11:00:00 22.4 5 Noroeste 13 Oeste 0 -- -- 65
2018-05-23 10:00:00 20.6 4 Sudoeste 13 Sudoeste 0 -- -- 73
2018-05-23 09:00:00 17.8 8 Sudoeste 12 Sudoeste 0 -- -- 94
2018-05-23 08:00:00 14.7 0 Calma 3 Noroeste 0 -- -- 97
2018-05-23 07:00:00 11.6 2 Noroeste 5 Noroeste 0 -- -- 94
2018-05-23 06:00:00 12.2 3 Oeste 6 Sudoeste 0 -- -- 95
2018-05-23 05:00:00 13.2 4 Sudoeste 7 Sudoeste 0 -- -- 94
2018-05-23 04:00:00 13.9 3 Sudoeste 6 Oeste 0 -- -- 93
2018-05-23 03:00:00 15 5 Oeste 6 Oeste 0 -- -- 93
2018-05-23 02:00:00 16.9 2 Oeste 5 Sudoeste 0 -- -- 93
2018-05-23 01:00:00 16.7 0 Calma 4 Sur 0 -- -- 93
2018-05-23 00:00:00 16.1 0 Calma 5 Sudeste 0 -- -- 92
2018-05-22 23:00:00 15.7 2 Noroeste 5 Sudoeste 0 -- -- 89
2018-05-22 22:00:00 17.3 4 Sudoeste 13 Sudoeste 0 -- -- 86
2018-05-22 21:00:00 19 7 Sudoeste 12 Oeste 0 -- -- 78
2018-05-22 20:00:00 21.6 8 Oeste 15 Sudoeste 0 -- -- 66
2018-05-22 19:00:00 22.7 10 Oeste 18 Sudoeste 0 -- -- 59
2018-05-22 18:00:00 22.8 8 Oeste 15 Sudoeste 0.6 -- -- 66
2018-05-22 17:00:00 21.3 4 Sudoeste 15 Nordeste 0.8 -- -- 75
2018-05-22 16:00:00 22.8 8 Este 18 Nordeste 0 -- -- 67
2018-05-22 15:00:00 20.9 5 Oeste 13 Norte 0.2 -- -- 76
2018-05-22 14:00:00 20.7 6 Nordeste 17 Nordeste 0 -- -- 69
2018-05-22 13:00:00 22.4 4 Sudeste 15 Sur 0 -- -- 58
2018-05-22 12:00:00 23.6 8 Sudeste 19 Sudeste 0 -- -- 59
2018-05-22 11:00:00 22.1 6 Este 12 Este 0 -- -- 64
2018-05-22 10:00:00 19.3 4 Sudeste 9 Sudeste 0 -- -- 86
2018-05-22 09:00:00 16.2 3 Sur 5 Sur 0 -- -- 96
2018-05-22 08:00:00 13.2 2 Sudoeste 4 Sudoeste 0.2 -- -- 97
2018-05-22 07:00:00 10.6 2 Oeste 6 Oeste 0 -- -- 96
2018-05-22 06:00:00 10.9 2 Oeste 7 Sudoeste 0 -- -- 96
2018-05-22 05:00:00 11.5 0 Calma 9 Sudoeste 0 -- -- 95
2018-05-22 04:00:00 11.6 3 Sudoeste 5 Sudoeste 0 -- -- 95
2018-05-22 03:00:00 12.6 3 Noroeste 6 Oeste 0 -- -- 94
2018-05-22 02:00:00 13.4 2 Este 5 Noroeste 0 -- -- 93
2018-05-22 01:00:00 14 4 Noroeste 6 Norte 0 -- -- 93
2018-05-22 00:00:00 15.5 5 Nordeste 6 Nordeste 0 -- -- 93
2018-05-21 23:00:00 15.4 4 Norte 5 Norte 0 -- -- 91
2018-05-21 22:00:00 16.7 3 Este 4 Sudoeste 0 -- -- 88
2018-05-21 21:00:00 17.7 5 Sudoeste 8 Sudoeste 0 -- -- 87
2018-05-21 20:00:00 18.1 2 Este 11 Sur 0 -- -- 86
2018-05-21 19:00:00 18 8 Sur 17 Sudoeste 0.2 -- -- 86
2018-05-21 18:00:00 18.2 13 Sudeste 21 Sudeste 2.4 -- -- 79
2018-05-21 17:00:00 21.3 9 Oeste 24 Sudoeste 0 -- -- 63
2018-05-21 16:00:00 21.6 14 Sudoeste 24 Sudoeste 0 -- -- 64
2018-05-21 15:00:00 19.5 12 Sudoeste 21 Sur 0.2 -- -- 71
2018-05-21 14:00:00 19.3 5 Sur 16 Oeste 1.2 -- -- 73
2018-05-21 13:00:00 22.2 5 Nordeste 15 Este 0 -- -- 60
2018-05-21 12:00:00 20.1 3 Sur 10 Sur 0 -- -- 68
2018-05-21 11:00:00 18.3 0 Calma 5 Noroeste 0 -- -- 88
2018-05-21 10:00:00 16.6 0 Calma 9 Nordeste 0.8 -- -- 93
2018-05-21 09:00:00 15.9 6 Norte 15 Norte 0 -- -- 93
2018-05-21 08:00:00 15.5 3 Nordeste 5 Nordeste 0 -- -- 93
2018-05-21 07:00:00 14.7 3 Sudeste 4 Sudeste 0 -- -- 92
2018-05-21 06:00:00 14.7 0 Calma 3 Sudoeste 0 -- -- 91
2018-05-21 05:00:00 15.3 0 Calma 5 Oeste 0 -- -- 91
2018-05-21 04:00:00 15.5 0 Calma 4 Sudoeste 0 -- -- 91
2018-05-21 03:00:00 15.6 0 Calma 6 Oeste 0 -- -- 91
2018-05-21 02:00:00 15.3 3 Oeste 5 Oeste 0 -- -- 90
2018-05-21 01:00:00 15.5 4 Sudoeste 6 Sudoeste 0 -- -- 89
2018-05-21 00:00:00 16 4 Sudoeste 10 Sudoeste 0 -- -- 88
2018-05-20 23:00:00 16.4 7 Sudoeste 13 Oeste 0 -- -- 86
2018-05-20 22:00:00 16.9 8 Sudoeste 16 Sudoeste 0 -- -- 84
2018-05-20 21:00:00 18 10 Sudoeste 17 Sudoeste 0 -- -- 76
2018-05-20 20:00:00 19.3 11 Sudoeste 17 Sudoeste 0 -- -- 70
2018-05-20 19:00:00 20.5 10 Sudoeste 17 Sudoeste 0 -- -- 66
2018-05-20 18:00:00 21.4 11 Sudoeste 23 Sudoeste 0 -- -- 61
2018-05-20 17:00:00 20.9 14 Sudoeste 25 Sudoeste 0 -- -- 61
2018-05-20 16:00:00 22.1 14 Sudoeste 27 Oeste 0 -- -- 62
2018-05-20 15:00:00 21.4 15 Sudoeste 29 Este 0 -- -- 64
2018-05-20 14:00:00 24.6 14 Este 27 Este 0 -- -- 51
2018-05-20 13:00:00 23.7 8 Nordeste 20 Norte 0 -- -- 51
2018-05-20 12:00:00 23 8 Nordeste 26 Este 0 -- -- 55
2018-05-20 11:00:00 20.2 7 Este 13 Este 0 -- -- 68
2018-05-20 10:00:00 17 3 Nordeste 6 Este 0 -- -- 84
2018-05-20 09:00:00 15.9 3 Este 7 Este 0 -- -- 89
2018-05-20 08:00:00 13.3 0 Calma 4 Sur 0 -- -- 93
2018-05-20 07:00:00 10.7 2 Norte 5 Noroeste 0 -- -- 92
2018-05-20 06:00:00 10.7 5 Noroeste 6 Noroeste 0 -- -- 91
2018-05-20 05:00:00 10.9 0 Calma 4 Noroeste 0 -- -- 91
2018-05-20 04:00:00 11.2 0 Calma 3 Noroeste 0 -- -- 90
2018-05-20 03:00:00 11.9 2 Sudoeste 4 Noroeste 0 -- -- 90
2018-05-20 02:00:00 12.5 3 Sudoeste 5 Sur 0 -- -- 88
2018-05-20 01:00:00 13.3 2 Noroeste 6 Sudoeste 0 -- -- 88
2018-05-20 00:00:00 14.5 3 Sudoeste 8 Noroeste 0 -- -- 85
2018-05-19 23:00:00 15.3 4 Noroeste 8 Oeste 0 -- -- 81
2018-05-19 22:00:00 16.5 5 Sudoeste 12 Sudoeste 0 -- -- 76
2018-05-19 21:00:00 18.1 8 Oeste 19 Oeste 0 -- -- 69
2018-05-19 20:00:00 22.4 6 Sur 19 Este 0 -- -- 55
2018-05-19 19:00:00 23.7 9 Nordeste 21 Este 0 -- -- 41
2018-05-19 18:00:00 24.3 9 Este 29 Este 0 -- -- 41
2018-05-19 17:00:00 24.2 10 Este 31 Este 0 -- -- 41
2018-05-19 16:00:00 24 17 Este 33 Este 0 -- -- 43
2018-05-19 15:00:00 24.6 16 Este 31 Este 0 -- -- 45
2018-05-19 14:00:00 23.9 16 Este 27 Este 0 -- -- 48
2018-05-19 13:00:00 23.3 12 Este 27 Este 0 -- -- 49
2018-05-19 12:00:00 22.6 16 Este 28 Este 0 -- -- 52
2018-05-19 11:00:00 20.5 11 Este 21 Nordeste 0 -- -- 61
2018-05-19 10:00:00 19.5 9 Este 18 Este 0 -- -- 71
2018-05-19 09:00:00 16.8 4 Este 8 Este 0 -- -- 90
2018-05-19 08:00:00 12.4 0 Calma 4 Sur 0 -- -- 95
2018-05-19 07:00:00 8.7 4 Noroeste 5 Norte 0 -- -- 93
2018-05-19 06:00:00 9.5 0 Calma 9 Norte 0 -- -- 91
2018-05-19 05:00:00 9.5 6 Norte 8 Noroeste 0 -- -- 92
2018-05-19 04:00:00 9.7 3 Oeste 4 Sudoeste 0 -- -- 90
2018-05-19 03:00:00 10.7 3 Norte 6 Norte 0 -- -- 89
2018-05-19 02:00:00 11.2 4 Norte 6 Norte 0 -- -- 88
2018-05-19 01:00:00 11.7 3 Norte 5 Nordeste 0 -- -- 86
2018-05-19 00:00:00 12.6 3 Nordeste 6 Nordeste 0 -- -- 84
2018-05-18 23:00:00 14 3 Nordeste 6 Nordeste 0 -- -- 81
2018-05-18 22:00:00 15.4 4 Nordeste 13 Nordeste 0 -- -- 75
2018-05-18 21:00:00 17.2 8 Nordeste 22 Este 0 -- -- 68
2018-05-18 20:00:00 19.4 12 Este 26 Este 0 -- -- 62
2018-05-18 19:00:00 19.9 14 Este 32 Este 0 -- -- 59
2018-05-18 18:00:00 20.7 16 Este 32 Nordeste 0 -- -- 59
2018-05-18 17:00:00 20.9 14 Este 29 Nordeste 0 -- -- 61
2018-05-18 16:00:00 22 15 Este 35 Este 0 -- -- 60
2018-05-18 15:00:00 22.3 15 Este 30 Nordeste 0 -- -- 55
2018-05-18 14:00:00 20.2 13 Este 27 Este 0 -- -- 66
2018-05-18 13:00:00 20 16 Este 27 Este 0 -- -- 66
2018-05-18 12:00:00 19.8 13 Nordeste 29 Nordeste 0 -- -- 63
2018-05-18 11:00:00 18.5 14 Nordeste 26 Nordeste 0 -- -- 71
2018-05-18 10:00:00 18.1 12 Nordeste 23 Nordeste 0 -- -- 71
2018-05-18 09:00:00 17.3 12 Nordeste 27 Nordeste 0 -- -- 76
2018-05-18 08:00:00 15.2 8 Este 15 Este 0 -- -- 90
2018-05-18 07:00:00 14.4 5 Este 17 Nordeste 0 -- -- 90
2018-05-18 06:00:00 14.2 5 Norte 18 Este 0 -- -- 89
2018-05-18 05:00:00 13.8 13 Este 18 Este 0 -- -- 89
2018-05-18 04:00:00 11.6 0 Calma 5 Este 0 -- -- 89
2018-05-18 03:00:00 12.8 4 Este 8 Nordeste 0 -- -- 90
2018-05-18 02:00:00 13.3 2 Norte 6 Este 0 -- -- 90
2018-05-18 01:00:00 13.6 3 Norte 10 Sudoeste 0 -- -- 91
2018-05-18 00:00:00 13.6 6 Sudoeste 9 Sudoeste 0 -- -- 88
2018-05-17 23:00:00 15.1 0 Calma 4 Este 0 -- -- 83
2018-05-17 22:00:00 16.5 2 Nordeste 14 Este 0 -- -- 81
2018-05-17 21:00:00 18.1 10 Este 22 Este 0 -- -- 72
2018-05-17 20:00:00 20.6 11 Este 20 Nordeste 0 -- -- 62
2018-05-17 19:00:00 21.3 10 Nordeste 28 Este 0 -- -- 59
2018-05-17 18:00:00 21.9 13 Este 28 Este 0 -- -- 57
2018-05-17 17:00:00 22.1 15 Este 34 Este 0 -- -- 54
2018-05-17 16:00:00 23 19 Este 39 Este 0 -- -- 52
2018-05-17 15:00:00 23 22 Este 40 Este 0 -- -- 51
2018-05-17 14:00:00 23.4 19 Este 35 Este 0 -- -- 49
2018-05-17 13:00:00 23.5 17 Este 31 Este 0 -- -- 48
2018-05-17 12:00:00 23.1 16 Este 29 Nordeste 0 -- -- 45
2018-05-17 11:00:00 22.1 14 Nordeste 24 Nordeste 0 -- -- 48
2018-05-17 10:00:00 19.8 8 Este 15 Este 0 -- -- 63
2018-05-17 09:00:00 16.9 7 Este 12 Este 0 -- -- 82
2018-05-17 08:00:00 12.8 0 Calma 6 Norte 0 -- -- 94
2018-05-17 07:00:00 9.5 2 Noroeste 8 Norte 0 -- -- 92
2018-05-17 06:00:00 9.5 6 Noroeste 8 Norte 0 -- -- 90
2018-05-17 05:00:00 10.5 4 Oeste 7 Oeste 0 -- -- 87
2018-05-17 04:00:00 11.8 6 Oeste 10 Oeste 0 -- -- 88
2018-05-17 03:00:00 12.3 7 Oeste 16 Oeste 0 -- -- 86
2018-05-17 02:00:00 11.8 9 Oeste 12 Oeste 0 -- -- 86
2018-05-17 01:00:00 12.1 8 Oeste 9 Sudoeste 0 -- -- 86
2018-05-17 00:00:00 12.8 3 Oeste 6 Sudoeste 0 -- -- 81
2018-05-16 23:00:00 14.2 5 Norte 7 Norte 0 -- -- 76
2018-05-16 22:00:00 16.1 3 Noroeste 6 Oeste 0 -- -- 68
2018-05-16 21:00:00 18.6 4 Noroeste 10 Este 0 -- -- 60
2018-05-16 20:00:00 21.3 7 Este 17 Este 0 -- -- 50
2018-05-16 19:00:00 22.6 12 Este 23 Este 0 -- -- 48
2018-05-16 18:00:00 23.7 14 Este 27 Nordeste 0 -- -- 47
2018-05-16 17:00:00 23.4 14 Este 25 Este 0 -- -- 48
2018-05-16 16:00:00 23.2 10 Oeste 23 Sudoeste 0 -- -- 45
2018-05-16 15:00:00 24.1 13 Sudoeste 27 Oeste 0 -- -- 45
2018-05-16 14:00:00 23.7 6 Este 22 Sudeste 0 -- -- 42
2018-05-16 13:00:00 23.3 10 Sudeste 18 Sudeste 0 -- -- 43
2018-05-16 12:00:00 22.2 5 Sudeste 15 Este 0 -- -- 46
2018-05-16 11:00:00 20.7 5 Este 14 Este 0 -- -- 48
2018-05-16 10:00:00 18.7 3 Sudeste 8 Sudeste 0 -- -- 62
2018-05-16 09:00:00 16 3 Este 6 Este 0 -- -- 83
2018-05-16 08:00:00 11.1 0 Calma 3 Este 0 -- -- 95
2018-05-16 07:00:00 7.8 2 Sudoeste 5 Sudoeste 0 -- -- 93
2018-05-16 06:00:00 8.1 0 Calma 2 Sur 0 -- -- 92
2018-05-16 05:00:00 8.8 0 Calma 6 Sudoeste 0 -- -- 92
2018-05-16 04:00:00 9 6 Sudoeste 7 Sudoeste 0 -- -- 91
2018-05-16 03:00:00 9.6 3 Oeste 6 Oeste 0 -- -- 90
2018-05-16 02:00:00 10 2 Oeste 4 Norte 0 -- -- 87
2018-05-16 01:00:00 11.3 2 Norte 5 Norte 0 -- -- 87
2018-05-16 00:00:00 11.8 3 Norte 6 Sudoeste 0 -- -- 85
2018-05-15 23:00:00 12.7 3 Sudoeste 5 Sudoeste 0 -- -- 81
2018-05-15 22:00:00 14.6 3 Nordeste 8 Sur 0 -- -- 73
2018-05-15 21:00:00 16.6 3 Sur 14 Este 0 -- -- 66
2018-05-15 20:00:00 19.9 10 Este 22 Nordeste 0 -- -- 58
2018-05-15 19:00:00 21.1 12 Nordeste 24 Nordeste 0 -- -- 49
2018-05-15 18:00:00 22.3 14 Este 27 Nordeste 0 -- -- 52
2018-05-15 17:00:00 23.6 13 Sudoeste 39 Sudoeste 0 -- -- 32
2018-05-15 16:00:00 23 19 Sur 29 Sudoeste 0 -- -- 41
2018-05-15 15:00:00 23.3 17 Sudoeste 31 Sudoeste 0 -- -- 34
2018-05-15 14:00:00 22.5 15 Sudoeste 31 Sudoeste 0 -- -- 45
2018-05-15 13:00:00 21.8 13 Oeste 36 Oeste 0 -- -- 42
2018-05-15 12:00:00 20.8 17 Oeste 29 Oeste 0 -- -- 49
2018-05-15 11:00:00 20.2 11 Oeste 25 Oeste 0 -- -- 49
2018-05-15 10:00:00 18.2 12 Oeste 19 Sudoeste 0 -- -- 62
2018-05-15 09:00:00 15.1 5 Sudoeste 10 Oeste 0 -- -- 78
2018-05-15 08:00:00 11.3 4 Sudoeste 6 Sudoeste 0 -- -- 93
2018-05-15 07:00:00 7.3 4 Noroeste 5 Noroeste 0 -- -- 92
2018-05-15 06:00:00 8 2 Nordeste 5 Sur 0 -- -- 90
2018-05-15 05:00:00 8.8 4 Oeste 9 Sudoeste 0 -- -- 90
2018-05-15 04:00:00 8.6 2 Noroeste 8 Oeste 0 -- -- 89
2018-05-15 03:00:00 8.6 2 Oeste 4 Noroeste 0 -- -- 88
2018-05-15 02:00:00 9 0 Calma 4 Norte 0 -- -- 86
2018-05-15 01:00:00 9.5 0 Calma 7 Noroeste 0 -- -- 81
2018-05-15 00:00:00 10 4 Norte 6 Noroeste 0 -- -- 81
2018-05-14 23:00:00 11.6 5 Nordeste 9 Nordeste 0 -- -- 71
2018-05-14 22:00:00 12.6 6 Sudeste 9 Sudeste 0 -- -- 61
2018-05-14 21:00:00 15.2 0 Calma 13 Noroeste 0 -- -- 45
2018-05-14 20:00:00 17.9 9 Noroeste 24 Oeste 0 -- -- 32
2018-05-14 19:00:00 16.9 10 Noroeste 24 Norte 0 -- -- 32
2018-05-14 18:00:00 19.1 18 Norte 27 Norte 0 -- -- 33
2018-05-14 17:00:00 19.3 13 Noroeste 26 Noroeste 0 -- -- 37
2018-05-14 16:00:00 19.4 14 Noroeste 28 Norte 0 -- -- 42
2018-05-14 15:00:00 19 15 Norte 45 Sudoeste 0 -- -- 46
2018-05-14 14:00:00 18.5 11 Noroeste 28 Oeste 0 -- -- 41
2018-05-14 13:00:00 18.2 14 Noroeste 42 Oeste 0 -- -- 45
2018-05-14 12:00:00 16.8 28 Noroeste 45 Noroeste 0 -- -- 48
2018-05-14 11:00:00 17 20 Noroeste 31 Oeste 0 -- -- 48
2018-05-14 10:00:00 14.5 12 Noroeste 35 Oeste 0 -- -- 56
2018-05-14 09:00:00 14.2 17 Noroeste 44 Noroeste 0 -- -- 61
2018-05-14 08:00:00 14.2 18 Noroeste 39 Noroeste 0 -- -- 60
2018-05-14 07:00:00 13.3 18 Noroeste 30 Noroeste 0 -- -- 64
2018-05-14 06:00:00 13 13 Oeste 23 Oeste 0 -- -- 81
2018-05-14 05:00:00 10.9 4 Este 14 Sudoeste 0.2 -- -- 88
2018-05-14 04:00:00 10.5 10 Sudoeste 17 Sudoeste 0.2 -- -- 86
2018-05-14 03:00:00 9.5 7 Oeste 14 Sudoeste 0 -- -- 80
2018-05-14 02:00:00 10.9 10 Sudoeste 18 Sudoeste 0 -- -- 73
2018-05-14 01:00:00 11.4 12 Sudoeste 24 Sudoeste 0 -- -- 71
2018-05-11 20:00:00 -- -- -- -- -- -- -- -- --
2018-05-11 19:00:00 22.3 9 Oeste 21 Sur 0 -- -- 52
2018-05-11 18:00:00 22.6 12 Sur 23 Sudoeste 0 -- -- 49
2018-05-11 17:00:00 23 14 Sudoeste 26 Oeste 0 -- -- 49
2018-05-11 16:00:00 23.4 16 Sudoeste 30 Sudoeste 0 -- -- 49
2018-05-11 15:00:00 23.5 16 Sudoeste 31 Sudoeste 0 -- -- 47
2018-05-11 14:00:00 23.2 13 Sudoeste 26 Sur 0 -- -- 53
2018-05-11 13:00:00 22.9 14 Sudoeste 24 Sudoeste 0 -- -- 54
2018-05-11 12:00:00 21.7 10 Sur 23 Sur 0 -- -- 56
2018-05-11 11:00:00 20.5 6 Sur 14 Oeste 0 -- -- 62
2018-05-11 10:00:00 18.7 7 Sudoeste 12 Oeste 0 -- -- 69
2018-05-11 09:00:00 15.8 4 Sudoeste 8 Sudoeste 0 -- -- 95
2018-05-11 08:00:00 12.4 3 Sudoeste 6 Sudoeste 0 -- -- 97
2018-05-11 07:00:00 9.5 2 Noroeste 5 Oeste 0 -- -- 95
2018-05-11 06:00:00 10.2 2 Sudoeste 6 Sudoeste 0 -- -- 95
2018-05-11 05:00:00 11 5 Sudoeste 6 Sudoeste 0 -- -- 94
2018-05-11 04:00:00 12.1 2 Oeste 6 Oeste 0 -- -- 94
2018-05-11 03:00:00 11.4 4 Oeste 6 Noroeste 0 -- -- 93
2018-05-11 02:00:00 12 0 Calma 5 Noroeste 0 -- -- 93
2018-05-11 01:00:00 13.1 0 Calma 3 Norte 0 -- -- 92
2018-05-11 00:00:00 13.3 2 Norte 5 Norte 0 -- -- 90
2018-05-10 23:00:00 14.4 2 Nordeste 8 Norte 0 -- -- 88
2018-05-10 22:00:00 15.3 6 Nordeste 10 Nordeste 0 -- -- 87
2018-05-10 21:00:00 15.6 3 Nordeste 12 Nordeste 0 -- -- 87
2018-05-10 20:00:00 16.4 7 Nordeste 13 Nordeste 0 -- -- 83
2018-05-10 19:00:00 16.6 4 Nordeste 14 Nordeste 0 -- -- 86
2018-05-10 18:00:00 17.4 8 Nordeste 17 Este 0 -- -- 86
2018-05-10 17:00:00 17.8 6 Norte 20 Oeste 0.2 -- -- 88
2018-05-10 16:00:00 18.1 14 Oeste 26 Sudoeste 0.4 -- -- 87
2018-05-10 15:00:00 20.2 15 Sudoeste 24 Oeste 0 -- -- 73
2018-05-10 14:00:00 21.6 12 Este 27 Este 0 -- -- 69
2018-05-10 13:00:00 22 9 Este 24 Nordeste 0 -- -- 65
2018-05-10 12:00:00 20.7 10 Nordeste 21 Nordeste 0 -- -- 72
2018-05-10 11:00:00 19.2 10 Nordeste 19 Este 0 -- -- 86
2018-05-10 10:00:00 16.8 6 Nordeste 13 Nordeste 0 -- -- 95
2018-05-10 09:00:00 15.3 4 Este 8 Este 0 -- -- 96
2018-05-10 08:00:00 14.1 0 Calma 2 Noroeste 0 -- -- 96
2018-05-10 07:00:00 13.4 2 Noroeste 2 Oeste 0 -- -- 95
2018-05-10 06:00:00 13.4 0 Calma 6 Oeste 0 -- -- 95
2018-05-10 05:00:00 14.1 5 Oeste 8 Sudoeste 0 -- -- 94
2018-05-10 04:00:00 14.5 5 Oeste 8 Oeste 0 -- -- 94
2018-05-10 03:00:00 13.9 5 Sudoeste 7 Sudoeste 0 -- -- 93
2018-05-10 02:00:00 13.7 0 Calma 4 Sudoeste 0 -- -- 92
2018-05-10 01:00:00 14.9 5 Sudoeste 15 Sudoeste 0 -- -- 92
2018-05-10 00:00:00 16 9 Oeste 19 Oeste 0 -- -- 90
2018-05-09 23:00:00 15.7 10 Sudoeste 22 Sudoeste 0 -- -- 91
2018-05-09 22:00:00 15.9 10 Sudoeste 16 Sudoeste 0 -- -- 89
2018-05-09 21:00:00 16.8 11 Sudoeste 16 Sudoeste 0 -- -- 85
2018-05-09 20:00:00 18.7 11 Sudoeste 22 Sudoeste 0 -- -- 75
2018-05-09 19:00:00 19.6 15 Sudoeste 26 Sudoeste 0 -- -- 75
2018-05-09 18:00:00 20.3 17 Sudoeste 28 Sudoeste 0 -- -- 67
2018-05-09 17:00:00 21.1 17 Sudoeste 26 Sudoeste 0 -- -- 67
2018-05-09 16:00:00 21.9 15 Sudoeste 27 Sudoeste 0 -- -- 66
2018-05-09 15:00:00 22.4 14 Sur 22 Sudoeste 0 -- -- 66
2018-05-09 14:00:00 21.8 15 Sudoeste 26 Sur 0 -- -- 69
2018-05-09 13:00:00 21.7 19 Sur 27 Sur 0 -- -- 71
2018-05-09 12:00:00 20.5 16 Sudoeste 28 Sudoeste 0 -- -- 76
2018-05-09 11:00:00 18.9 17 Sudoeste 30 Sudoeste 0 -- -- 81
2018-05-09 10:00:00 17.3 14 Sudoeste 30 Sudoeste 0 -- -- 93
2018-05-09 09:00:00 15.6 15 Sudoeste 28 Sudoeste 0 -- -- 96
2018-05-09 08:00:00 14.4 14 Sudoeste 22 Sudoeste 0 -- -- 97
2018-05-09 07:00:00 12.9 5 Oeste 13 Oeste 0 -- -- 96
2018-05-09 06:00:00 12.2 5 Sudoeste 8 Sudoeste 0 -- -- 96
2018-05-09 05:00:00 12.5 3 Oeste 5 Oeste 0 -- -- 95
2018-05-09 04:00:00 13.3 4 Oeste 7 Oeste 0 -- -- 95
2018-05-09 03:00:00 12.8 5 Oeste 8 Noroeste 0 -- -- 95
2018-05-09 02:00:00 11.9 3 Sur -- -- 0 -- -- 94
2018-05-09 01:00:00 12.5 3 Oeste 6 Oeste 0 -- -- 93
2018-05-09 00:00:00 13.1 3 Oeste 9 Noroeste 0 -- -- 92
2018-05-08 23:00:00 14 2 Oeste 9 Sudoeste 0 -- -- 91
2018-05-08 22:00:00 14.8 5 Oeste 16 Sudoeste 0 -- -- 89
2018-05-08 21:00:00 15.8 11 Sudoeste 23 Sudoeste 0 -- -- 85
2018-05-08 20:00:00 18 13 Sudoeste 18 Sudoeste 0 -- -- 78
2018-05-08 19:00:00 19.3 10 Sudoeste 18 Sudoeste 0 -- -- 75
2018-05-08 18:00:00 17.8 11 Oeste 19 Oeste 0 -- -- 80
2018-05-08 17:00:00 17.9 12 Oeste 19 Sudoeste 0 -- -- 79
2018-05-08 16:00:00 18.1 11 Sudoeste 18 Sur 0 -- -- 80
2018-05-08 15:00:00 18.2 9 Oeste 28 Sudoeste 0.2 -- -- 80
2018-05-08 14:00:00 18.3 17 Sudoeste 28 Sudoeste 0 -- -- 78
2018-05-08 13:00:00 20.4 13 Oeste 23 Sur 0 -- -- 72
2018-05-08 12:00:00 21.4 6 Sur 16 Sudeste 0 -- -- 66
2018-05-08 11:00:00 19.6 3 Nordeste 10 Este 0 -- -- 75
2018-05-08 10:00:00 17.7 3 Sudeste 9 Oeste 0 -- -- 91
2018-05-08 09:00:00 15.4 6 Sudoeste 18 Sudoeste 0 -- -- 96
2018-05-08 08:00:00 12.9 2 Oeste 7 Sudoeste 0 -- -- 97
2018-05-08 07:00:00 10.9 2 Oeste 6 Sudoeste 0 -- -- 95
2018-05-08 06:00:00 11.4 3 Sudoeste 8 Oeste 0 -- -- 94
2018-05-08 05:00:00 12.7 8 Sudoeste 12 Sudoeste 0 -- -- 95
2018-05-08 04:00:00 13 9 Oeste 13 Oeste 0 -- -- 95
2018-05-08 03:00:00 12.6 8 Oeste 11 Oeste 0 -- -- 94
2018-05-08 02:00:00 12.1 4 Oeste 8 Oeste 0 -- -- 93
2018-05-08 01:00:00 12.1 5 Oeste -- -- 0 -- -- 91
2018-05-08 00:00:00 13 0 Calma 5 Noroeste 0 -- -- 90
2018-05-07 23:00:00 14.1 2 Sudeste 4 Sudeste 0 -- -- 87
2018-05-07 22:00:00 15.4 2 Sudeste 7 Este 0 -- -- 84
2018-05-07 21:00:00 17.1 2 Este 12 Este 0 -- -- 79
2018-05-07 20:00:00 19 3 Este 13 Oeste 0 -- -- 72
2018-05-07 19:00:00 20.5 8 Sudoeste 19 Oeste 0 -- -- 69
2018-05-07 18:00:00 21.4 13 Oeste 22 Oeste 0 -- -- 68
2018-05-07 17:00:00 21.6 13 Sudoeste 23 Sudoeste 0 -- -- 66
2018-05-07 16:00:00 21.5 10 Sudoeste 19 Sur 0 -- -- 66
2018-05-07 15:00:00 22 11 Sur 17 Sudoeste 0 -- -- 65
2018-05-07 14:00:00 21.8 5 Nordeste 13 Este 0 -- -- 60
2018-05-07 13:00:00 19.7 5 Sudoeste 10 Noroeste 0 -- -- 73
2018-05-07 12:00:00 16.9 4 Sudoeste 10 Oeste 0 -- -- 93
2018-05-07 11:00:00 14.6 6 Sur 11 Este 0 -- -- 96
2018-05-07 10:00:00 13.6 5 Este 11 Este 0 -- -- 97
2018-05-07 09:00:00 13.1 4 Nordeste 9 Nordeste 0 -- -- 97
2018-05-07 08:00:00 12.6 3 Este 7 Nordeste 0 -- -- 96
2018-05-07 07:00:00 11.6 0 Calma 5 Norte 0 -- -- 96
2018-05-07 06:00:00 10.1 4 Norte 6 Norte 0 -- -- 95
2018-05-07 05:00:00 9.1 3 Sudeste 5 Sur 0 -- -- 95
2018-05-07 04:00:00 9.4 2 Oeste 6 Sudoeste 0 -- -- 94
2018-05-07 03:00:00 10 3 Sudoeste 6 Sudoeste 0 -- -- 94
2018-05-07 02:00:00 10.9 0 Calma 4 Sudoeste 0 -- -- 94
2018-05-07 01:00:00 11.8 3 Norte 4 Noroeste 0 -- -- 92
2018-05-07 00:00:00 12.6 4 Noroeste 5 Noroeste 0 -- -- 91
2018-05-06 23:00:00 13.2 0 Calma 4 Norte 0 -- -- 89
2018-05-06 22:00:00 14.6 0 Calma 8 Este 0 -- -- 87
2018-05-06 21:00:00 16.4 7 Este 15 Este 0 -- -- 83
2018-05-06 20:00:00 18.8 7 Este 20 Nordeste 0 -- -- 72
2018-05-06 19:00:00 20.8 9 Este 20 Nordeste 0 -- -- 67
2018-05-06 18:00:00 21.2 10 Este 26 Este 0 -- -- 67
2018-05-06 17:00:00 21.4 15 Este 31 Este 0 -- -- 68
2018-05-06 16:00:00 22.3 17 Este 28 Este 0 -- -- 65
2018-05-06 15:00:00 22.6 14 Nordeste 30 Este 0 -- -- 61
2018-05-06 14:00:00 22.6 14 Este 32 Nordeste 0 -- -- 61
2018-05-06 13:00:00 21.6 5 Noroeste 28 Norte 0 -- -- 61
2018-05-06 12:00:00 21.1 20 Nordeste 32 Nordeste 0 -- -- 63
2018-05-06 11:00:00 19.2 15 Nordeste 29 Nordeste 0 -- -- 71
2018-05-06 10:00:00 19 18 Nordeste 27 Nordeste 0 -- -- 73
2018-05-06 09:00:00 15.1 3 Este 8 Este 0 -- -- 95
2018-05-06 08:00:00 12.4 7 Este 9 Este 0 -- -- 96
2018-05-06 07:00:00 10.7 5 Nordeste 7 Oeste 0 -- -- 95
2018-05-06 06:00:00 10.4 4 Oeste 8 Sudeste 0 -- -- 94
2018-05-06 05:00:00 10.5 3 Sudeste 5 Nordeste 0 -- -- 93
2018-05-06 04:00:00 11.9 4 Nordeste 7 Este 0 -- -- 93
2018-05-06 03:00:00 11.6 0 Calma 12 Nordeste 0 -- -- 93
2018-05-06 02:00:00 13.7 11 Nordeste 18 Nordeste 0 -- -- 94
2018-05-06 01:00:00 10.8 2 Norte 7 Nordeste 0 -- -- 94
2018-05-06 00:00:00 11.6 3 Norte 7 Norte 0 -- -- 93
2018-05-05 23:00:00 12.5 3 Noroeste 9 Este 0 -- -- 90
2018-05-05 22:00:00 14 8 Este 14 Este 0 -- -- 89
2018-05-05 21:00:00 15.6 4 Este 13 Este 0 -- -- 83
2018-05-05 20:00:00 18.1 7 Nordeste 18 Nordeste 0 -- -- 72
2018-05-05 19:00:00 18.2 13 Nordeste 28 Nordeste 0 -- -- 73
2018-05-05 18:00:00 18.2 15 Nordeste 28 Nordeste 0 -- -- 79
2018-05-05 17:00:00 18.1 14 Nordeste 27 Nordeste 0 -- -- 79
2018-05-05 16:00:00 17.3 16 Nordeste 28 Nordeste 0 -- -- 84
2018-05-05 15:00:00 15.7 12 Nordeste 20 Nordeste 0.4 -- -- 94
2018-05-05 14:00:00 15 2 Norte 7 Sudoeste 0.4 -- -- 96
2018-05-05 13:00:00 14.4 5 Sudoeste 12 Sur 2.6 -- -- 95
2018-05-05 12:00:00 14.3 4 Sudoeste 10 Sudoeste 3.2 -- -- 95
2018-05-05 11:00:00 14 5 Sur 9 Sur 1 -- -- 95
2018-05-05 10:00:00 13.6 5 Sur 15 Sudoeste 0.6 -- -- 95
2018-05-05 09:00:00 13 9 Sur 14 Sur 3.2 -- -- 95
2018-05-05 08:00:00 12.5 6 Sudoeste 11 Sur 4.6 -- -- 94
2018-05-05 07:00:00 12.7 5 Sur 13 Sudoeste 0 -- -- 93
2018-05-05 06:00:00 12.4 8 Sudoeste 11 Sudoeste 0.2 -- -- 93
2018-05-05 05:00:00 12.5 3 Sudeste 12 Oeste 0 -- -- 94
2018-05-05 04:00:00 12.3 6 Sudoeste 8 Oeste 0 -- -- 94
2018-05-05 03:00:00 12.1 3 Oeste 10 Sudoeste 0 -- -- 93
2018-05-05 02:00:00 12.1 5 Sudoeste 13 Sudoeste 0.2 -- -- 93
2018-05-05 01:00:00 12.4 3 Sudoeste 8 Sudeste 0.6 -- -- 92
2018-05-05 00:00:00 12.4 4 Sur 7 Sudoeste 0 -- -- 92
2018-05-04 23:00:00 12.7 2 Sudoeste 8 Sudoeste 0 -- -- 91
2018-05-04 22:00:00 12.7 5 Sur 11 Sudoeste 0 -- -- 90
2018-05-04 21:00:00 13 7 Sudoeste 13 Oeste 0 -- -- 89
2018-05-04 20:00:00 13.7 5 Oeste 15 Sudoeste 0 -- -- 88
2018-05-04 19:00:00 14.4 7 Sudoeste 12 Sudoeste 0.2 -- -- 87
2018-05-04 18:00:00 14.9 3 Sudoeste 7 Oeste 0 -- -- 84
2018-05-04 17:00:00 14.5 4 Oeste 10 Oeste 0 -- -- 83
2018-05-04 16:00:00 14.3 7 Oeste 14 Oeste 1.2 -- -- 83
2018-05-04 15:00:00 14.7 8 Noroeste 17 Noroeste 0.8 -- -- 82
2018-05-04 14:00:00 14.9 12 Noroeste 22 Noroeste 0.4 -- -- 79
2018-05-04 13:00:00 17 7 Sudoeste 12 Sudoeste 0 -- -- 76
2018-05-04 12:00:00 16.3 3 Sudeste 7 Oeste 0 -- -- 78
2018-05-04 11:00:00 15.1 5 Sudoeste 10 Sudoeste 0.4 -- -- 87
2018-05-04 10:00:00 13.4 4 Noroeste 8 Oeste 0.4 -- -- 88
2018-05-04 09:00:00 13.2 3 Sudoeste 6 Sur 0.8 -- -- 86
2018-05-04 08:00:00 13.2 2 Sudeste 9 Norte 0 -- -- 81
2018-05-04 07:00:00 14.1 0 Calma 18 Noroeste 0 -- -- 69
2018-05-04 06:00:00 14.7 14 Noroeste 19 Noroeste 0 -- -- 65
2018-05-04 05:00:00 13.3 9 Oeste 15 Oeste 0 -- -- 74
2018-05-04 04:00:00 12.5 9 Oeste 17 Oeste 0 -- -- 73
2018-05-04 03:00:00 11.6 8 Sudoeste 14 Sudoeste 0 -- -- 78
2018-05-04 02:00:00 12.6 7 Sudoeste 12 Oeste 0 -- -- 73
2018-05-04 01:00:00 13.6 2 Sudoeste 8 Oeste 0 -- -- 72
2018-05-04 00:00:00 14 7 Oeste 9 Sudoeste 0 -- -- 67
2018-05-03 23:00:00 15.3 3 Oeste 10 Norte 0 -- -- 65
2018-05-03 22:00:00 16.4 9 Norte 16 Nordeste 0 -- -- 54
2018-05-03 21:00:00 17 9 Nordeste 21 Nordeste 0 -- -- 50
2018-05-03 20:00:00 19.7 8 Noroeste 23 Oeste 0 -- -- 44
2018-05-03 19:00:00 20.4 10 Oeste 27 Noroeste 0 -- -- 42
2018-05-03 18:00:00 21.2 17 Noroeste 38 Sudoeste 0 -- -- 40
2018-05-03 17:00:00 21.2 24 Sudoeste 37 Sur 0 -- -- 46
2018-05-03 16:00:00 21.2 24 Sudoeste 36 Sudoeste 0 -- -- 50
2018-05-03 15:00:00 21.6 22 Sudoeste 31 Sudoeste 0 -- -- 48
2018-05-03 14:00:00 21.6 5 Noroeste 22 Este 0 -- -- 38
2018-05-03 13:00:00 21.3 15 Este 27 Este 0 -- -- 38
2018-05-03 12:00:00 20.2 14 Nordeste 33 Este 0 -- -- 46
2018-05-03 11:00:00 19.3 19 Nordeste 30 Nordeste 0 -- -- 45
2018-05-03 10:00:00 18.2 13 Nordeste 29 Nordeste 0 -- -- 56
2018-05-03 09:00:00 16.3 6 Este 14 Este 0 -- -- 64
2018-05-03 08:00:00 12.1 4 Sudeste 8 Este 0 -- -- 78
2018-05-03 07:00:00 11 0 Calma 18 Oeste 0 -- -- 73
2018-05-03 06:00:00 13.3 9 Oeste 18 Oeste 0 -- -- 68
2018-05-03 05:00:00 9.2 11 Oeste 15 Oeste 0 -- -- 82
2018-05-03 04:00:00 6.9 2 Sudeste 10 Oeste 0 -- -- 78
2018-05-03 03:00:00 8 9 Oeste 13 Oeste 0 -- -- 73
2018-05-03 02:00:00 7.8 9 Sudoeste 11 Sudoeste 0 -- -- 73
2018-05-03 01:00:00 9.5 9 Sudoeste 12 Sudoeste 0 -- -- 68
2018-05-03 00:00:00 10 6 Sudoeste 15 Sudoeste 0 -- -- 65
2018-05-02 23:00:00 10.8 11 Sudoeste 15 Oeste 0 -- -- 59
2018-05-02 22:00:00 12.9 9 Oeste 20 Sudoeste 0 -- -- 56
2018-05-02 21:00:00 14.8 8 Sudoeste 18 Sudoeste 0 -- -- 56
2018-05-02 20:00:00 18.8 9 Oeste 22 Noroeste 0 -- -- 34
2018-05-02 19:00:00 19.6 11 Noroeste 28 Noroeste 0 -- -- 31
2018-05-02 18:00:00 19.9 14 Noroeste 34 Noroeste 0 -- -- 30
2018-05-02 17:00:00 19.6 22 Noroeste 34 Noroeste 0 -- -- 32
2018-05-02 16:00:00 20 19 Noroeste 32 Noroeste 0 -- -- 36
2018-05-02 15:00:00 19.3 20 Noroeste 33 Noroeste 0 -- -- 41
2018-05-02 14:00:00 18.5 17 Noroeste 37 Noroeste 0 -- -- 46
2018-05-02 13:00:00 18.3 16 Noroeste 34 Noroeste 0 -- -- 43
2018-05-02 12:00:00 17 21 Noroeste 36 Noroeste 0 -- -- 49
2018-05-02 11:00:00 17 14 Noroeste 30 Noroeste 0 -- -- 53
2018-05-02 10:00:00 16 16 Oeste 26 Oeste 0 -- -- 56
2018-05-02 09:00:00 14.6 13 Noroeste 21 Oeste 0 -- -- 65
2018-05-02 08:00:00 10.4 10 Sudoeste 14 Sudoeste 0 -- -- 87
2018-05-02 07:00:00 8.6 8 Oeste 14 Oeste 0 -- -- 84
2018-05-02 06:00:00 8.6 9 Oeste 14 Noroeste 0 -- -- 86
2018-05-02 05:00:00 8.5 6 Noroeste 12 Noroeste 0 -- -- 88
2018-05-02 04:00:00 8.7 6 Noroeste 9 Noroeste 0 -- -- 91
2018-05-02 03:00:00 8.7 4 Sudoeste 7 Oeste 0 -- -- 91
2018-05-02 02:00:00 8.3 4 Sur 6 Noroeste 0 -- -- 89
2018-05-02 01:00:00 8.2 5 Noroeste 9 Norte 0 -- -- 88
2018-05-02 00:00:00 9 7 Norte 11 Norte 0 -- -- 82
2018-05-01 23:00:00 9.6 3 Nordeste 8 Nordeste 0 -- -- 80
2018-05-01 22:00:00 10.6 5 Norte 10 Nordeste 0 -- -- 77
2018-05-01 21:00:00 12.1 7 Nordeste 26 Nordeste 0 -- -- 71
2018-05-01 20:00:00 13.4 15 Nordeste 41 Nordeste 0 -- -- 68
2018-05-01 19:00:00 14.1 15 Nordeste 36 Nordeste 0 -- -- 70
2018-05-01 18:00:00 14.8 23 Nordeste 38 Nordeste 0 -- -- 66
2018-05-01 17:00:00 15.7 20 Nordeste 41 Norte 0 -- -- 63
2018-05-01 16:00:00 14.2 28 Nordeste 44 Nordeste 0 -- -- 69
2018-05-01 15:00:00 14.2 14 Nordeste 27 Nordeste 0 -- -- 79
2018-05-01 14:00:00 14.5 16 Nordeste 27 Nordeste 0 -- -- 76
2018-05-01 13:00:00 16.5 13 Nordeste 28 Nordeste 0 -- -- 72
2018-05-01 12:00:00 15.7 15 Nordeste 32 Este 0 -- -- 74
2018-05-01 11:00:00 14.3 15 Nordeste 27 Nordeste 0 -- -- 84
2018-05-01 10:00:00 12.7 10 Nordeste 20 Nordeste 0 -- -- 92
2018-05-01 09:00:00 10.2 9 Norte 22 Norte 2.4 -- -- 93
2018-05-01 08:00:00 11.2 3 Noroeste 8 Noroeste 0 -- -- 94
2018-05-01 07:00:00 10.7 5 Noroeste 6 Noroeste 0 -- -- 93
2018-05-01 06:00:00 10.6 3 Este 19 Sudeste 1 -- -- 92
2018-05-01 05:00:00 10.7 13 Sudeste 19 Sudeste 2 -- -- 90
2018-05-01 04:00:00 11.5 4 Norte 13 Sudeste 0.2 -- -- 90
2018-05-01 03:00:00 11.7 11 Sudeste 16 Sudeste 0 -- -- 87
2018-05-01 02:00:00 11.2 6 Sur 9 Norte 0 -- -- 82
2018-05-01 01:00:00 11.3 4 Noroeste 9 Norte 0 -- -- 82
2018-05-01 00:00:00 10.7 5 Oeste 10 Oeste 0 -- -- 79
2018-04-30 23:00:00 10.2 7 Oeste 10 Oeste 0 -- -- 73
2018-04-30 22:00:00 11.1 4 Sudoeste 9 Sur 0 -- -- 66
2018-04-30 21:00:00 14.2 4 Oeste 15 Sudoeste 0 -- -- 54
2018-04-30 20:00:00 16.4 12 Sudoeste 24 Sudoeste 0 -- -- 44
2018-04-30 19:00:00 17.2 12 Sudoeste 24 Sudoeste 0 -- -- 42
2018-04-30 18:00:00 17.1 14 Sudoeste 26 Sudoeste 0 -- -- 44
2018-04-30 17:00:00 18.4 15 Sudoeste 31 Oeste 0 -- -- 42
2018-04-30 16:00:00 18.8 20 Sudoeste 32 Sudoeste 0 -- -- 39
2018-04-30 15:00:00 19.6 19 Sudoeste 31 Sur 0 -- -- 42
2018-04-30 14:00:00 19.5 15 Oeste 28 Oeste 0 -- -- 42
2018-04-30 13:00:00 19.1 17 Oeste 36 Oeste 0 -- -- 41
2018-04-30 12:00:00 18.9 20 Oeste 38 Oeste 0 -- -- 39
2018-04-30 11:00:00 19.2 19 Oeste 36 Oeste 0 -- -- 38
2018-04-30 10:00:00 17.4 12 Sudoeste 27 Sur 0 -- -- 54
2018-04-30 09:00:00 15 15 Sur 23 Sur 0 -- -- 68
2018-04-30 08:00:00 11.1 10 Sudoeste 14 Sudoeste 0 -- -- 85
2018-04-30 07:00:00 9.1 8 Sudoeste 15 Sur 0 -- -- 86
2018-04-30 06:00:00 10.1 8 Sudoeste 16 Sur 0 -- -- 90
2018-04-30 05:00:00 10.2 10 Sur 13 Sudoeste 0 -- -- 92
2018-04-30 04:00:00 10.5 8 Sudoeste 13 Sur 0 -- -- 91
2018-04-30 03:00:00 10.8 9 Sudoeste 13 Sudoeste 0 -- -- 90
2018-04-30 02:00:00 11.5 6 Sur 14 Sudoeste 0 -- -- 88
2018-04-30 01:00:00 12.7 10 Sudoeste 17 Sudoeste 0 -- -- 86
2018-04-30 00:00:00 14.1 13 Sudoeste 38 Sudoeste 0 -- -- 85
2018-04-29 23:00:00 14.5 18 Sudoeste 31 Sudoeste 0 -- -- 82
2018-04-29 22:00:00 14.8 23 Sudoeste 37 Sudoeste 0 -- -- 78
2018-04-29 21:00:00 14.9 22 Sudoeste 36 Sudoeste 0 -- -- 79
2018-04-29 20:00:00 16.7 28 Sudoeste 55 Sudoeste 0 -- -- 56
2018-04-29 19:00:00 17.1 28 Sudoeste 55 Sudoeste 0 -- -- 63
2018-04-29 18:00:00 18.6 33 Sudoeste 54 Sudoeste 0 -- -- 44
2018-04-29 17:00:00 18.9 36 Sudoeste 54 Sudoeste 0 -- -- 48
2018-04-29 16:00:00 19.5 30 Oeste 52 Sudoeste 0 -- -- 43
2018-04-29 15:00:00 19 29 Sudoeste 52 Sudoeste 0 -- -- 46
2018-04-29 14:00:00 19.7 30 Oeste 51 Sudoeste 0 -- -- 45
2018-04-29 13:00:00 17.5 29 Oeste 48 Oeste 0 -- -- 49
2018-04-29 12:00:00 17.6 27 Sudoeste 55 Sudoeste 0 -- -- 78
2018-04-29 11:00:00 17.3 32 Sudoeste 52 Oeste 0 -- -- 72
2018-04-29 10:00:00 16 18 Sudoeste 45 Sudoeste 0 -- -- 81
2018-04-29 09:00:00 15.7 3 Sudoeste 34 Sudoeste 0.6 -- -- 84
2018-04-29 08:00:00 16.5 19 Sudoeste 36 Sudoeste 0 -- -- 74
2018-04-29 07:00:00 16.1 8 Sudoeste 15 Sudoeste 0 -- -- 78
2018-04-29 06:00:00 15.9 9 Sudoeste 19 Oeste 0 -- -- 79
2018-04-29 05:00:00 14.1 9 Noroeste 14 Sudoeste 0 -- -- 86
2018-04-29 04:00:00 14.5 6 Sudoeste 14 Oeste 0 -- -- 84
2018-04-29 03:00:00 14.3 8 Oeste 18 Oeste 0 -- -- 87
2018-04-29 02:00:00 13.2 8 Oeste 12 Oeste 0 -- -- 88
2018-04-29 01:00:00 13.5 5 Oeste 10 Oeste 0 -- -- 85
2018-04-29 00:00:00 14.7 7 Noroeste 12 Oeste 0 -- -- 88
2018-04-28 23:00:00 14.8 8 Oeste 12 Oeste 0 -- -- 86
2018-04-28 22:00:00 15.7 8 Oeste 17 Oeste 0 -- -- 83
2018-04-28 21:00:00 17.1 10 Oeste 23 Oeste 0 -- -- 76
2018-04-28 20:00:00 19.3 10 Oeste 23 Oeste 0 -- -- 69
2018-04-28 19:00:00 21.3 14 Sudoeste 34 Sudoeste 0 -- -- 63
2018-04-28 18:00:00 22.2 16 Oeste 33 Sudoeste 0 -- -- 60
2018-04-28 17:00:00 22.9 19 Oeste 32 Sudoeste 0 -- -- 52
2018-04-28 16:00:00 22.9 20 Oeste 33 Sudoeste 0 -- -- 53
2018-04-28 15:00:00 23.1 17 Oeste 30 Sudoeste 0 -- -- 55
2018-04-28 14:00:00 22.5 16 Oeste 31 Sudoeste 0 -- -- 56
2018-04-28 13:00:00 21.8 17 Sudoeste 27 Sudoeste 0 -- -- 61
2018-04-28 12:00:00 20.3 16 Oeste 31 Sudoeste 0 -- -- 64
2018-04-28 11:00:00 20 14 Oeste 23 Oeste 0 -- -- 68
2018-04-28 10:00:00 17.8 14 Oeste 22 Oeste 0 -- -- 83
2018-04-28 09:00:00 15.8 7 Oeste 13 Oeste 0 -- -- 96
2018-04-28 08:00:00 14.1 5 Sudoeste 13 Sudoeste 0 -- -- 96
2018-04-28 07:00:00 12.4 9 Sudoeste 15 Sudoeste 0 -- -- 96
2018-04-28 06:00:00 12.3 8 Sudoeste 19 Oeste 0 -- -- 95
2018-04-28 05:00:00 12.4 12 Sudoeste 17 Sudoeste 0 -- -- 94
2018-04-28 04:00:00 10.5 8 Sudoeste 10 Sudoeste 0 -- -- 92
2018-04-28 03:00:00 10.6 4 Sudoeste 9 Oeste 0 -- -- 91
2018-04-28 02:00:00 10.8 5 Oeste 9 Sudoeste 0 -- -- 89
2018-04-28 01:00:00 11.8 5 Sudoeste 6 Sudoeste 0 -- -- 88
2018-04-28 00:00:00 13.1 5 Oeste 10 Sudoeste 0 -- -- 87
2018-04-27 23:00:00 14 8 Sudoeste 16 Oeste 0 -- -- 83
2018-04-27 22:00:00 14.3 8 Oeste 11 Sudoeste 0 -- -- 74
2018-04-27 21:00:00 15.6 7 Sudoeste 17 Sudoeste 0 -- -- 66
2018-04-27 20:00:00 18.2 13 Sudoeste 26 Oeste 0 -- -- 53
2018-04-27 19:00:00 19.9 18 Sudoeste 35 Sudoeste 0 -- -- 49
2018-04-27 18:00:00 21.1 17 Sudoeste 32 Sudoeste 0 -- -- 42
2018-04-27 17:00:00 21.7 21 Sudoeste 31 Sudoeste 0 -- -- 45
2018-04-27 16:00:00 22.8 19 Sudoeste 33 Sudoeste 0 -- -- 44
2018-04-27 15:00:00 22.8 23 Sudoeste 40 Sudoeste 0 -- -- 43
2018-04-27 14:00:00 22.9 20 Sudoeste 33 Sudoeste 0 -- -- 41
2018-04-27 13:00:00 22.6 22 Sudoeste 35 Sudoeste 0 -- -- 41
2018-04-27 12:00:00 22 21 Sudoeste 36 Oeste 0 -- -- 41
2018-04-27 11:00:00 21 18 Sudoeste 27 Sudoeste 0 -- -- 46
2018-04-27 10:00:00 19.5 11 Sudoeste 18 Sudoeste 0 -- -- 59
2018-04-27 09:00:00 14.5 4 Sudoeste 9 Sudoeste 0 -- -- 86
2018-04-27 08:00:00 8.8 6 Sudoeste 8 Sudoeste 0 -- -- 93
2018-04-27 07:00:00 6.7 5 Oeste 9 Oeste 0 -- -- 91
2018-04-27 06:00:00 6.5 3 Oeste 5 Sudoeste 0 -- -- 90
2018-04-27 05:00:00 7.7 3 Sur 6 Oeste 0 -- -- 89
2018-04-27 04:00:00 8.1 3 Sudoeste 7 Oeste 0 -- -- 89
2018-04-27 03:00:00 8.7 4 Sudoeste 7 Sudoeste 0 -- -- 87
2018-04-27 02:00:00 9.3 2 Oeste 9 Noroeste 0 -- -- 86
2018-04-27 01:00:00 9.9 7 Noroeste 8 Noroeste 0 -- -- 84
2018-04-27 00:00:00 11.1 4 Noroeste 6 Noroeste 0 -- -- 78
2018-04-26 23:00:00 12.8 5 Sur 10 Este 0 -- -- 72
2018-04-26 22:00:00 14.6 6 Sudeste 15 Este 0 -- -- 65
2018-04-26 21:00:00 15.7 9 Nordeste 22 Este 0 -- -- 61
2018-04-26 20:00:00 17.2 10 Este 22 Este 0 -- -- 62
2018-04-26 19:00:00 17.7 13 Este 25 Nordeste 0 -- -- 66
2018-04-26 18:00:00 17.8 13 Nordeste 31 Este 0 -- -- 66
2018-04-26 17:00:00 17.9 16 Este 39 Nordeste 0 -- -- 67
2018-04-26 16:00:00 18.5 25 Nordeste 40 Nordeste 0 -- -- 62
2018-04-26 15:00:00 18.1 22 Este 49 Este 0 -- -- 66
2018-04-26 14:00:00 16.9 28 Nordeste 47 Nordeste 0 -- -- 70
2018-04-26 13:00:00 17.4 35 Nordeste 62 Nordeste 0 -- -- 67
2018-04-26 12:00:00 17.8 27 Nordeste 50 Nordeste 0 -- -- 68
2018-04-26 11:00:00 16.9 27 Nordeste 48 Nordeste 0 -- -- 69
2018-04-26 10:00:00 16.9 26 Nordeste 43 Nordeste 0 -- -- 69
2018-04-26 09:00:00 16.9 19 Nordeste 38 Nordeste 0 -- -- 72
2018-04-26 08:00:00 16.1 14 Nordeste 31 Nordeste 0 -- -- 81
2018-04-26 07:00:00 16.4 17 Nordeste 39 Este 0 -- -- 82
2018-04-26 06:00:00 16.6 18 Nordeste 34 Nordeste 0 -- -- 84
2018-04-26 05:00:00 16.9 18 Nordeste 34 Nordeste 0 -- -- 85
2018-04-26 04:00:00 17.2 20 Nordeste 33 Norte 0 -- -- 82
2018-04-26 03:00:00 17.3 12 Nordeste 23 Nordeste 0 -- -- 74
2018-04-26 02:00:00 17 12 Nordeste 19 Nordeste 0 -- -- 83
2018-04-26 01:00:00 16.9 6 Nordeste 13 Nordeste 0 -- -- 81
2018-04-26 00:00:00 17.2 6 Este 15 Este 0 -- -- 81
2018-04-25 23:00:00 17.7 4 Este 6 Este 0 -- -- 80
2018-04-25 22:00:00 18.4 4 Este 10 Este 0 -- -- 74
2018-04-25 21:00:00 19 6 Nordeste 20 Este 0 -- -- 67
2018-04-25 20:00:00 20.3 12 Este 20 Este 0 -- -- 65
2018-04-25 19:00:00 22 10 Nordeste 17 Nordeste 0 -- -- 53
2018-04-25 18:00:00 22.7 5 Este 15 Sudeste 0 -- -- 45
2018-04-25 17:00:00 23.2 8 Sudeste 19 Sudeste 0 -- -- 48
2018-04-25 16:00:00 23.4 8 Este 25 Este 0 -- -- 42
2018-04-25 15:00:00 24.3 12 Este 25 Este 0 -- -- 40
2018-04-25 14:00:00 25 14 Este 27 Este 0 -- -- 43
2018-04-25 13:00:00 23.3 13 Nordeste 25 Nordeste 0 -- -- 48
2018-04-25 12:00:00 23.1 11 Nordeste 24 Nordeste 0 -- -- 43
2018-04-25 11:00:00 21.6 12 Nordeste 24 Nordeste 0 -- -- 50
2018-04-25 10:00:00 19.9 13 Nordeste 21 Nordeste 0 -- -- 51
2018-04-25 09:00:00 17.9 9 Nordeste 16 Nordeste 0 -- -- 59
2018-04-25 08:00:00 15.9 7 Nordeste 14 Nordeste 0 -- -- 64
2018-04-25 07:00:00 15.1 10 Nordeste 18 Norte 0 -- -- 65
2018-04-25 06:00:00 12.2 5 Nordeste 12 Este 0 -- -- 78
2018-04-25 05:00:00 11.2 6 Este 10 Este 0 -- -- 84
2018-04-25 04:00:00 11 3 Norte 9 Sudeste 0 -- -- 83
2018-04-25 03:00:00 11.7 4 Este 8 Nordeste 0 -- -- 79
2018-04-25 02:00:00 11.2 3 Nordeste 9 Sudeste 0 -- -- 82
2018-04-25 01:00:00 12.8 4 Nordeste 9 Nordeste 0 -- -- 78
2018-04-25 00:00:00 14.2 6 Nordeste 11 Este 0 -- -- 76
2018-04-24 23:00:00 14.8 5 Nordeste 7 Nordeste 0 -- -- 77
2018-04-24 22:00:00 16.3 4 Nordeste 8 Nordeste 0 -- -- 70
2018-04-24 21:00:00 18.4 4 Este 15 Este 0 -- -- 62
2018-04-24 20:00:00 19.8 8 Nordeste 20 Nordeste 0 -- -- 55
2018-04-24 19:00:00 20.8 13 Nordeste 22 Este 0 -- -- 49
2018-04-24 18:00:00 21.8 11 Nordeste 25 Nordeste 0 -- -- 45
2018-04-24 17:00:00 23.2 15 Nordeste 28 Este 0 -- -- 41
2018-04-24 16:00:00 24.8 14 Este 29 Este 0 -- -- 38
2018-04-24 15:00:00 25.8 17 Nordeste 33 Nordeste 0 -- -- 39
2018-04-24 14:00:00 25.8 15 Este 27 Este 0 -- -- 42
2018-04-24 13:00:00 25.1 9 Nordeste 19 Este 0 -- -- 42
2018-04-24 12:00:00 24.7 8 Sudeste 17 Este 0 -- -- 40
2018-04-24 11:00:00 23.4 9 Nordeste 21 Nordeste 0 -- -- 41
2018-04-24 10:00:00 21.2 8 Nordeste 22 Nordeste 0 -- -- 49
2018-04-24 09:00:00 18.1 6 Nordeste 10 Nordeste 0 -- -- 66
2018-04-24 08:00:00 12.8 6 Este 12 Este 0 -- -- 81
2018-04-24 07:00:00 11.4 4 Nordeste 9 Este 0 -- -- 85
2018-04-24 06:00:00 11.7 5 Este 8 Nordeste 0 -- -- 84
2018-04-24 05:00:00 12.2 4 Este 7 Nordeste 0 -- -- 84
2018-04-24 04:00:00 12.8 5 Nordeste 10 Este 0 -- -- 82
2018-04-24 03:00:00 14.1 6 Este 16 Nordeste 0 -- -- 78
2018-04-24 02:00:00 14.3 9 Nordeste 14 Nordeste 0 -- -- 84
2018-04-24 01:00:00 13.8 5 Nordeste 8 Este 0 -- -- 81
2018-04-24 00:00:00 14.6 3 Nordeste 8 Nordeste 0 -- -- 79